Time;durP1;ratioP1;P1;durP2;ratioP2;P2;SDS_P1;SDS_P2;PMS_P1;PMS_P2;Temp;Humidity;BMP_temperature;BMP_pressure;BME280_temperature;BME280_humidity;BME280_pressure;Samples;Min_cycle;Max_cycle;Signal;HPM_P1;HPM_P2
2023/09/20 00:02:06;;;;;;;2.23;1.97;;;17.60;99.90;;;;;;5013538;28;20443;-71
2023/09/20 00:04:33;;;;;;;2.50;2.30;;;17.60;99.90;;;;;;5012084;28;20437;-70
2023/09/20 00:06:58;;;;;;;3.10;2.07;;;17.50;99.90;;;;;;5013482;28;20164;-70
2023/09/20 00:09:24;;;;;;;2.37;1.80;;;17.50;99.90;;;;;;5015771;28;20909;-70
2023/09/20 00:11:49;;;;;;;2.13;1.70;;;17.70;99.90;;;;;;5013539;28;20250;-70
2023/09/20 00:14:16;;;;;;;2.80;1.80;;;17.80;99.90;;;;;;5013293;28;20219;-71
2023/09/20 00:16:42;;;;;;;3.20;1.90;;;17.80;99.90;;;;;;5013519;28;20171;-70
2023/09/20 00:19:08;;;;;;;2.70;1.87;;;17.80;99.90;;;;;;5013512;28;20403;-71
2023/09/20 00:21:34;;;;;;;3.63;2.20;;;17.80;99.90;;;;;;5013493;28;20188;-70
2023/09/20 00:24:00;;;;;;;5.43;2.53;;;17.60;99.90;;;;;;5012954;28;20431;-71
2023/09/20 00:26:25;;;;;;;3.43;2.13;;;17.60;99.90;;;;;;5013735;28;20434;-70
2023/09/20 00:28:51;;;;;;;2.10;1.90;;;17.60;99.90;;;;;;5014751;28;20539;-70
2023/09/20 00:31:17;;;;;;;2.10;1.90;;;17.50;99.90;;;;;;5017090;28;20532;-71
2023/09/20 00:33:43;;;;;;;2.60;2.00;;;17.50;99.90;;;;;;5017002;28;20196;-70
2023/09/20 00:36:08;;;;;;;2.27;1.60;;;17.30;99.90;;;;;;5017508;28;20168;-71
2023/09/20 00:38:34;;;;;;;2.87;1.80;;;17.20;99.90;;;;;;5017691;28;20867;-70
2023/09/20 00:41:05;;;;;;;2.33;1.80;;;17.30;99.90;;;;;;5017231;28;20191;-71
2023/09/20 00:43:31;;;;;;;3.40;2.20;;;17.30;99.90;;;;;;5017213;28;20226;-71
2023/09/20 00:45:59;;;;;;;3.63;1.93;;;17.30;99.90;;;;;;5017427;28;20395;-70
2023/09/20 00:48:25;;;;;;;2.70;1.53;;;17.50;99.90;;;;;;5015653;28;20406;-70
2023/09/20 00:50:51;;;;;;;3.57;2.30;;;17.50;99.90;;;;;;5016720;28;20425;-71
2023/09/20 00:53:17;;;;;;;2.90;1.90;;;17.40;99.90;;;;;;5016578;28;20430;-71
2023/09/20 00:55:43;;;;;;;4.00;1.93;;;17.30;99.90;;;;;;5016210;28;20250;-72
2023/09/20 00:58:15;;;;;;;2.10;1.90;;;17.30;99.90;;;;;;5016693;28;20453;-71
2023/09/20 01:00:43;;;;;;;3.03;2.10;;;17.20;99.90;;;;;;5016935;28;20278;-70
2023/09/20 01:03:10;;;;;;;2.00;1.80;;;17.20;99.90;;;;;;5016635;28;20430;-71
2023/09/20 01:05:39;;;;;;;2.80;1.77;;;17.30;99.90;;;;;;5016944;28;20949;-71
2023/09/20 01:08:09;;;;;;;2.27;2.07;;;17.30;99.90;;;;;;5016495;28;20408;-70
2023/09/20 01:10:38;;;;;;;2.23;2.03;;;17.40;99.90;;;;;;5016261;28;20418;-70
2023/09/20 01:13:05;;;;;;;2.00;1.80;;;17.40;99.90;;;;;;5015666;28;20801;-72
2023/09/20 01:15:33;;;;;;;2.33;2.00;;;17.30;99.90;;;;;;5015254;28;20407;-71
2023/09/20 01:18:00;;;;;;;2.00;1.70;;;17.30;99.90;;;;;;5016490;28;20403;-70
2023/09/20 01:20:30;;;;;;;3.67;1.97;;;17.30;99.90;;;;;;5016259;28;20411;-70
2023/09/20 01:22:57;;;;;;;6.07;2.33;;;17.30;99.90;;;;;;5016171;28;20461;-71
2023/09/20 01:25:29;;;;;;;2.43;1.80;;;17.40;99.90;;;;;;5016223;28;20399;-70
2023/09/20 01:27:59;;;;;;;2.20;2.00;;;17.30;99.90;;;;;;5016348;28;20407;-71
2023/09/20 01:30:27;;;;;;;3.17;2.30;;;17.20;99.90;;;;;;5016692;28;20747;-71
2023/09/20 01:32:57;;;;;;;2.73;2.27;;;17.20;99.90;;;;;;5016368;28;20415;-72
2023/09/20 01:35:28;;;;;;;3.13;1.70;;;17.10;99.90;;;;;;5016735;28;20403;-70
2023/09/20 01:37:55;;;;;;;1.90;1.80;;;17.10;99.90;;;;;;5016981;28;20387;-70
2023/09/20 01:40:25;;;;;;;7.00;1.90;;;17.00;99.90;;;;;;5014832;28;20929;-70
2023/09/20 01:42:57;;;;;;;2.50;1.90;;;17.00;99.90;;;;;;5015911;28;20418;-71
2023/09/20 01:45:23;;;;;;;2.53;1.77;;;17.00;99.90;;;;;;4995371;28;20782;-71
2023/09/20 01:48:00;;;;;;;2.07;1.80;;;17.00;99.90;;;;;;4993887;28;20400;-70
2023/09/20 01:50:26;;;;;;;3.17;2.00;;;16.90;99.90;;;;;;4995479;28;20183;-71
2023/09/20 01:52:53;;;;;;;2.70;2.10;;;17.00;99.90;;;;;;4994786;28;20399;-70
2023/09/20 01:55:23;;;;;;;1.80;1.70;;;17.00;99.90;;;;;;5015207;28;20418;-70
2023/09/20 01:57:53;;;;;;;2.10;1.90;;;16.80;99.90;;;;;;5014698;28;20394;-71
2023/09/20 02:00:24;;;;;;;1.87;1.73;;;16.90;99.90;;;;;;5014843;28;20487;-71
2023/09/20 02:02:54;;;;;;;3.20;2.00;;;17.00;99.90;;;;;;5014600;28;20482;-70
2023/09/20 02:05:21;;;;;;;2.90;1.80;;;17.10;99.90;;;;;;5014149;28;20429;-69
2023/09/20 02:07:47;;;;;;;2.00;1.80;;;17.10;99.90;;;;;;5014638;28;20403;-70
2023/09/20 02:10:16;;;;;;;2.70;1.93;;;17.10;99.90;;;;;;5014377;28;20490;-71
2023/09/20 02:13:00;;;;;;;2.80;2.00;;;17.10;99.90;;;;;;5014628;28;20415;-70
2023/09/20 02:15:28;;;;;;;2.10;1.67;;;17.00;99.90;;;;;;4995968;28;20398;-70
2023/09/20 02:17:54;;;;;;;2.30;2.00;;;16.90;99.90;;;;;;4994319;28;20426;-70
2023/09/20 02:20:22;;;;;;;2.23;1.70;;;17.00;99.90;;;;;;4994291;28;20490;-70
2023/09/20 02:22:48;;;;;;;2.10;1.90;;;17.00;99.90;;;;;;4994170;28;20430;-70
2023/09/20 02:25:20;;;;;;;2.67;1.80;;;17.00;99.90;;;;;;5012682;28;20431;-70
2023/09/20 02:27:49;;;;;;;1.83;1.73;;;16.90;99.90;;;;;;5013951;28;20399;-70
2023/09/20 02:30:17;;;;;;;2.47;1.60;;;16.80;99.90;;;;;;5013709;28;20449;-70
2023/09/20 02:32:43;;;;;;;2.27;2.07;;;16.80;99.90;;;;;;5013929;28;20407;-70
2023/09/20 02:35:09;;;;;;;2.83;2.00;;;16.90;99.90;;;;;;5013415;28;20477;-70
2023/09/20 02:37:36;;;;;;;4.27;1.97;;;17.00;99.90;;;;;;5013588;28;20403;-71
2023/09/20 02:40:13;;;;;;;1.63;1.53;;;17.00;99.90;;;;;;5013561;28;20411;-70
2023/09/20 02:42:53;;;;;;;2.80;1.70;;;17.00;99.90;;;;;;5013703;28;20832;-70
2023/09/20 02:45:20;;;;;;;4.47;2.00;;;17.00;99.90;;;;;;4975446;28;1127196;-70
2023/09/20 02:47:47;;;;;;;2.90;2.07;;;17.00;99.90;;;;;;5014299;28;20253;-70
2023/09/20 02:50:16;;;;;;;2.73;2.00;;;17.00;99.90;;;;;;5013567;28;20911;-69
2023/09/20 02:52:42;;;;;;;2.80;1.60;;;17.00;99.90;;;;;;5014241;28;20407;-70
2023/09/20 02:55:09;;;;;;;2.30;1.70;;;17.00;99.90;;;;;;5014037;28;20437;-70
2023/09/20 02:57:38;;;;;;;2.60;2.13;;;16.90;99.90;;;;;;5014583;28;20923;-70
2023/09/20 03:00:18;;;;;;;3.00;2.13;;;16.90;99.90;;;;;;5014145;28;20533;-70
2023/09/20 03:02:55;;;;;;;3.00;1.90;;;16.90;99.90;;;;;;5014289;28;20422;-70
2023/09/20 03:05:35;;;;;;;2.60;1.93;;;16.90;99.90;;;;;;5013481;28;20411;-70
2023/09/20 03:08:04;;;;;;;3.63;1.97;;;16.90;99.90;;;;;;5014356;28;20764;-70
2023/09/20 03:10:31;;;;;;;2.80;1.80;;;16.90;99.90;;;;;;5013559;28;20406;-71
2023/09/20 03:12:57;;;;;;;2.20;1.90;;;16.90;99.90;;;;;;5014040;28;20397;-71
2023/09/20 03:15:25;;;;;;;2.80;2.20;;;16.90;99.90;;;;;;5015182;28;20841;-70
2023/09/20 03:18:02;;;;;;;5.03;2.10;;;16.90;99.90;;;;;;5014632;28;20391;-70
2023/09/20 03:20:32;;;;;;;2.90;2.30;;;16.80;99.90;;;;;;5014567;28;20403;-70
2023/09/20 03:22:59;;;;;;;1.67;1.53;;;16.90;99.90;;;;;;5014247;28;20493;-71
2023/09/20 03:25:28;;;;;;;2.13;1.90;;;16.90;99.90;;;;;;5014064;28;20435;-70
2023/09/20 03:27:54;;;;;;;2.70;1.90;;;16.90;99.90;;;;;;5014275;28;20406;-70
2023/09/20 03:30:20;;;;;;;2.20;1.80;;;16.90;99.90;;;;;;5014280;28;20405;-69
2023/09/20 03:32:49;;;;;;;3.00;2.10;;;16.80;99.90;;;;;;5014724;28;20406;-70
2023/09/20 03:35:16;;;;;;;2.97;2.20;;;16.60;99.90;;;;;;5014252;28;20198;-69
2023/09/20 03:37:43;;;;;;;2.30;1.93;;;16.50;99.90;;;;;;5014076;28;20406;-70
2023/09/20 03:40:17;;;;;;;4.10;1.97;;;16.60;99.90;;;;;;5014401;28;20486;-69
2023/09/20 03:42:48;;;;;;;1.80;1.70;;;16.70;99.90;;;;;;5013992;28;20803;-70
2023/09/20 03:45:14;;;;;;;2.67;2.10;;;16.70;99.90;;;;;;5013754;28;20536;-70
2023/09/20 03:47:53;;;;;;;3.57;2.60;;;16.70;99.90;;;;;;5014273;28;20861;-70
2023/09/20 03:50:19;;;;;;;2.60;2.00;;;16.50;99.90;;;;;;5014310;28;20866;-70
2023/09/20 03:52:45;;;;;;;2.47;2.27;;;16.50;99.90;;;;;;5013824;28;20493;-70
2023/09/20 03:55:11;;;;;;;5.00;2.60;;;16.50;99.90;;;;;;5013863;28;20510;-69
2023/09/20 03:57:38;;;;;;;2.60;2.30;;;16.40;99.90;;;;;;5012637;28;20512;-70
2023/09/20 04:00:11;;;;;;;2.97;2.20;;;16.40;99.90;;;;;;5014045;28;20412;-70
2023/09/20 04:02:37;;;;;;;2.23;2.00;;;16.40;99.90;;;;;;5015146;28;20469;-70
2023/09/20 04:05:10;;;;;;;2.27;2.07;;;16.40;99.90;;;;;;5016803;28;20426;-70
2023/09/20 04:07:36;;;;;;;2.50;2.30;;;16.40;99.90;;;;;;5018937;28;20387;-70
2023/09/20 04:10:02;;;;;;;4.00;2.33;;;16.50;99.90;;;;;;5018519;28;20395;-71
2023/09/20 04:12:28;;;;;;;3.20;1.90;;;16.40;99.90;;;;;;5018595;28;20464;-70
2023/09/20 04:14:54;;;;;;;3.70;2.30;;;16.40;99.90;;;;;;5018616;28;20691;-70
2023/09/20 04:17:21;;;;;;;4.93;1.97;;;16.40;99.90;;;;;;5018389;28;20493;-69
2023/09/20 04:19:47;;;;;;;2.50;2.30;;;16.40;99.90;;;;;;5018582;28;20476;-70
2023/09/20 04:22:14;;;;;;;2.50;2.07;;;16.30;99.90;;;;;;5018185;28;20958;-70
2023/09/20 04:24:39;;;;;;;3.30;1.90;;;16.30;99.90;;;;;;5017581;28;20512;-70
2023/09/20 04:27:05;;;;;;;3.03;2.17;;;16.20;99.90;;;;;;5017608;28;20496;-70
2023/09/20 04:29:31;;;;;;;3.03;2.50;;;16.30;99.90;;;;;;5017740;28;20837;-69
2023/09/20 04:31:58;;;;;;;2.37;2.13;;;16.30;99.90;;;;;;5017543;28;20185;-70
2023/09/20 04:34:24;;;;;;;2.83;2.17;;;16.30;99.90;;;;;;5017655;28;20932;-70
2023/09/20 04:36:52;;;;;;;3.03;2.10;;;16.20;99.90;;;;;;5017796;28;20403;-70
2023/09/20 04:39:20;;;;;;;3.77;2.50;;;16.20;99.90;;;;;;5017926;28;20413;-70
2023/09/20 04:41:45;;;;;;;2.30;1.77;;;16.20;99.90;;;;;;5008931;28;20459;-70
2023/09/20 04:44:13;;;;;;;1.77;1.67;;;16.10;99.90;;;;;;5007317;28;20995;-68
2023/09/20 04:46:39;;;;;;;4.13;2.53;;;16.20;99.90;;;;;;5025142;23;20239;-70
2023/09/20 04:49:06;;;;;;;2.87;2.30;;;16.20;99.90;;;;;;5016262;28;20411;-70
2023/09/20 04:51:32;;;;;;;3.77;2.43;;;16.30;99.90;;;;;;5015839;28;20413;-70
2023/09/20 04:53:58;;;;;;;3.63;2.67;;;16.20;99.90;;;;;;5015959;28;20781;-72
2023/09/20 04:56:24;;;;;;;2.60;2.40;;;16.20;99.90;;;;;;5016147;28;20429;-71
2023/09/20 04:58:50;;;;;;;3.97;2.50;;;16.20;99.90;;;;;;5017047;28;20173;-71
2023/09/20 05:01:17;;;;;;;3.10;2.60;;;16.30;99.90;;;;;;5016662;28;20513;-72
2023/09/20 05:03:43;;;;;;;2.93;1.90;;;16.30;99.90;;;;;;5016522;28;20176;-71
2023/09/20 05:06:09;;;;;;;3.47;2.40;;;16.30;99.90;;;;;;5015954;28;20473;-70
2023/09/20 05:08:35;;;;;;;3.60;2.77;;;16.20;99.90;;;;;;5016039;28;20413;-70
2023/09/20 05:11:03;;;;;;;2.57;2.27;;;16.10;99.90;;;;;;5015858;28;20464;-70
2023/09/20 05:13:28;;;;;;;4.70;2.30;;;16.10;99.90;;;;;;5015449;28;20408;-70
2023/09/20 05:15:54;;;;;;;2.63;2.23;;;16.10;99.90;;;;;;5015617;28;20410;-70
2023/09/20 05:18:20;;;;;;;3.93;2.00;;;16.10;99.90;;;;;;5015005;28;20199;-71
2023/09/20 05:20:45;;;;;;;6.23;2.33;;;16.00;99.90;;;;;;5015643;28;20203;-69
2023/09/20 05:23:12;;;;;;;3.90;3.10;;;15.90;99.90;;;;;;5014165;28;20596;-70
2023/09/20 05:25:37;;;;;;;3.93;2.60;;;15.90;99.90;;;;;;5016610;28;20550;-70
2023/09/20 05:28:04;;;;;;;3.53;1.97;;;15.90;99.90;;;;;;5015409;28;20436;-70
2023/09/20 05:30:30;;;;;;;3.33;2.73;;;16.10;99.90;;;;;;5015337;28;20715;-71
2023/09/20 05:32:56;;;;;;;3.40;2.40;;;16.20;99.90;;;;;;5015741;28;20419;-69
2023/09/20 05:35:22;;;;;;;2.77;2.10;;;16.30;99.90;;;;;;5015430;28;20944;-70
2023/09/20 05:37:48;;;;;;;3.23;2.27;;;16.30;99.90;;;;;;5015364;28;20434;-70
2023/09/20 05:40:17;;;;;;;3.13;2.20;;;16.30;99.90;;;;;;5015427;28;20238;-70
2023/09/20 05:42:47;;;;;;;4.57;2.30;;;16.40;99.90;;;;;;5015124;28;20215;-71
2023/09/20 05:45:13;;;;;;;4.80;2.60;;;16.50;99.90;;;;;;5015271;28;20444;-70
2023/09/20 05:47:40;;;;;;;3.50;2.30;;;16.50;99.90;;;;;;5014824;28;20438;-70
2023/09/20 05:50:15;;;;;;;3.27;2.53;;;16.60;99.90;;;;;;5015218;28;20403;-71
2023/09/20 05:52:45;;;;;;;4.33;2.53;;;16.60;99.90;;;;;;5014757;28;20765;-70
2023/09/20 05:55:13;;;;;;;4.00;2.20;;;16.50;99.90;;;;;;5014960;28;20412;-69
2023/09/20 05:57:42;;;;;;;7.70;2.63;;;16.40;99.90;;;;;;5015070;28;20521;-70
2023/09/20 06:00:18;;;;;;;4.37;2.60;;;16.40;99.90;;;;;;5014985;28;20768;-72
2023/09/20 06:02:44;;;;;;;4.13;2.50;;;16.50;99.90;;;;;;5014590;28;20453;-70
2023/09/20 06:05:14;;;;;;;3.30;3.00;;;16.60;99.90;;;;;;5015052;28;20461;-70
2023/09/20 06:07:40;;;;;;;3.83;2.73;;;16.70;99.90;;;;;;5014926;28;20431;-71
2023/09/20 06:10:09;;;;;;;3.53;2.57;;;16.60;99.90;;;;;;5014657;28;20407;-71
2023/09/20 06:12:34;;;;;;;2.77;2.50;;;16.90;99.90;;;;;;5014656;28;20403;-70
2023/09/20 06:15:00;;;;;;;3.93;2.43;;;16.90;99.90;;;;;;5014665;28;20752;-71
2023/09/20 06:17:32;;;;;;;6.43;2.83;;;17.10;99.90;;;;;;5014462;28;20238;-69
2023/09/20 06:20:01;;;;;;;4.07;2.70;;;17.10;99.90;;;;;;5014665;28;20186;-70
2023/09/20 06:22:29;;;;;;;3.00;2.07;;;17.20;99.90;;;;;;4994864;28;20447;-69
2023/09/20 06:24:58;;;;;;;3.60;2.20;;;17.20;99.90;;;;;;4994017;28;20486;-71
2023/09/20 06:27:30;;;;;;;4.80;3.00;;;17.30;99.90;;;;;;4994564;28;20439;-70
2023/09/20 06:29:57;;;;;;;4.50;2.30;;;17.30;99.90;;;;;;4994824;28;20408;-69
2023/09/20 06:32:23;;;;;;;4.03;2.90;;;17.40;99.90;;;;;;5013575;28;20421;-70
2023/09/20 06:34:49;;;;;;;3.83;2.70;;;17.50;99.90;;;;;;5014156;28;20491;-70
2023/09/20 06:37:14;;;;;;;3.50;2.60;;;17.60;99.90;;;;;;5013836;28;20453;-70
2023/09/20 06:39:41;;;;;;;5.80;2.70;;;17.70;99.90;;;;;;5014087;28;20176;-68
2023/09/20 06:42:07;;;;;;;3.17;2.40;;;17.80;99.90;;;;;;5013982;28;20733;-70
2023/09/20 06:44:35;;;;;;;4.10;2.40;;;18.00;99.90;;;;;;5013877;28;20886;-70
2023/09/20 06:47:02;;;;;;;3.23;2.83;;;18.20;99.90;;;;;;5014163;28;20793;-70
2023/09/20 06:49:29;;;;;;;4.57;2.87;;;18.30;99.90;;;;;;5014249;28;20499;-71
2023/09/20 06:51:56;;;;;;;4.23;2.10;;;18.50;99.90;;;;;;5013931;28;20411;-70
2023/09/20 06:54:22;;;;;;;4.27;2.40;;;18.70;99.90;;;;;;5014191;28;20411;-69
2023/09/20 06:56:48;;;;;;;3.20;2.33;;;18.70;99.90;;;;;;5013726;28;20437;-70
2023/09/20 06:59:16;;;;;;;4.00;2.63;;;18.60;99.90;;;;;;5013488;28;20262;-68
2023/09/20 07:01:43;;;;;;;2.73;2.43;;;18.50;99.90;;;;;;5013553;28;20619;-70
2023/09/20 07:04:10;;;;;;;3.43;2.23;;;18.50;99.90;;;;;;5014006;28;20400;-70
2023/09/20 07:06:37;;;;;;;2.90;2.20;;;18.60;99.90;;;;;;5013715;28;20801;-70
2023/09/20 07:09:05;;;;;;;4.63;2.77;;;18.80;99.90;;;;;;5011939;28;20415;-70
2023/09/20 07:11:31;;;;;;;4.37;2.53;;;18.90;99.90;;;;;;5011857;28;20411;-70
2023/09/20 07:13:59;;;;;;;4.40;3.20;;;19.00;99.90;;;;;;5013811;28;20464;-70
2023/09/20 07:16:25;;;;;;;2.77;2.10;;;18.90;99.90;;;;;;5013449;28;20430;-70
2023/09/20 07:18:51;;;;;;;4.27;2.30;;;18.90;99.90;;;;;;5014184;28;20414;-71
2023/09/20 07:21:16;;;;;;;4.43;2.30;;;19.30;99.90;;;;;;5013825;28;20450;-70
2023/09/20 07:23:42;;;;;;;5.10;2.40;;;19.50;99.90;;;;;;5013692;28;20187;-70
2023/09/20 07:26:08;;;;;;;3.40;2.30;;;19.40;99.90;;;;;;5013674;28;20286;-70
2023/09/20 07:28:36;;;;;;;3.50;2.33;;;19.40;99.90;;;;;;5014118;28;20187;-70
2023/09/20 07:31:03;;;;;;;5.80;4.40;;;19.40;99.90;;;;;;5013721;28;20502;-69
2023/09/20 07:33:38;;;;;;;4.20;3.03;;;19.30;99.90;;;;;;5013787;28;20410;-70
2023/09/20 07:36:05;;;;;;;9.77;3.27;;;19.10;99.90;;;;;;5013477;28;20387;-70
2023/09/20 07:38:32;;;;;;;3.90;2.67;;;19.10;99.90;;;;;;5013710;28;20838;-71
2023/09/20 07:41:19;;;;;;;3.73;2.77;;;19.30;99.90;;;;;;5013120;28;20778;-70
2023/09/20 07:43:45;;;;;;;3.40;2.83;;;19.50;99.90;;;;;;5013462;28;20395;-70
2023/09/20 07:46:13;;;;;;;5.73;2.63;;;19.40;99.90;;;;;;5013048;28;20820;-71
2023/09/20 07:48:47;;;;;;;4.63;2.90;;;19.70;99.90;;;;;;5012169;28;20874;-71
2023/09/20 07:51:14;;;;;;;3.90;2.07;;;19.90;99.90;;;;;;5012950;28;20410;-71
2023/09/20 07:53:40;;;;;;;5.20;3.13;;;20.10;99.90;;;;;;5011585;28;20423;-70
2023/09/20 07:56:11;;;;;;;5.10;2.70;;;20.50;99.90;;;;;;5011887;28;20415;-71
2023/09/20 07:58:36;;;;;;;2.87;2.40;;;20.70;99.90;;;;;;5011694;28;20415;-70
2023/09/20 08:01:12;;;;;;;4.80;2.10;;;20.40;99.90;;;;;;5011790;28;20481;-70
2023/09/20 08:03:39;;;;;;;3.40;2.50;;;20.30;99.90;;;;;;5013007;28;20167;-70
2023/09/20 08:06:09;;;;;;;3.47;2.10;;;20.60;99.90;;;;;;5013069;28;20507;-70
2023/09/20 08:08:35;;;;;;;3.53;2.37;;;21.00;99.90;;;;;;5013111;28;20954;-69
2023/09/20 08:11:01;;;;;;;4.10;2.10;;;21.10;99.90;;;;;;5012775;28;20542;-71
2023/09/20 08:13:26;;;;;;;2.83;2.10;;;21.00;99.90;;;;;;5013054;28;20893;-70
2023/09/20 08:15:52;;;;;;;3.77;1.90;;;21.10;99.90;;;;;;5013038;28;20167;-70
2023/09/20 08:21:04;;;;;;;2.37;2.10;;;21.50;99.90;;;;;;5013016;28;20195;-71
2023/09/20 09:02:12;;;;;;;2.37;1.60;;;21.50;99.90;;;;;;5013311;28;20430;-69
2023/09/20 09:04:38;;;;;;;3.70;2.20;;;21.80;99.90;;;;;;5016043;28;20398;-71
2023/09/20 09:07:05;;;;;;;2.73;1.90;;;21.80;99.90;;;;;;5015525;28;20452;-70
2023/09/20 09:09:30;;;;;;;1.90;1.37;;;21.70;99.90;;;;;;5014628;28;20168;-70
2023/09/20 09:11:57;;;;;;;2.50;1.90;;;21.70;99.90;;;;;;5015396;28;20448;-70
2023/09/20 09:14:24;;;;;;;3.47;1.90;;;21.70;99.90;;;;;;5015996;28;20199;-70
2023/09/20 09:17:03;;;;;;;2.53;2.03;;;21.90;99.90;;;;;;5015741;28;20502;-70
2023/09/20 09:19:29;;;;;;;3.53;2.07;;;22.10;99.90;;;;;;5016059;28;20475;-71
2023/09/20 09:21:56;;;;;;;2.53;1.73;;;22.20;99.90;;;;;;5015781;28;20567;-71
2023/09/20 09:24:22;;;;;;;2.07;1.70;;;22.00;99.90;;;;;;5015815;28;20782;-70
2023/09/20 09:26:48;;;;;;;3.40;2.17;;;22.10;99.90;;;;;;5015788;28;20426;-70
2023/09/20 09:29:18;;;;;;;3.30;1.90;;;22.20;99.90;;;;;;5015383;28;21173;-70
2023/09/20 09:31:49;;;;;;;2.70;1.63;;;22.30;99.90;;;;;;5015303;28;20579;-70
2023/09/20 09:34:21;;;;;;;3.00;1.80;;;22.50;99.90;;;;;;5015446;28;20414;-71
2023/09/20 09:36:47;;;;;;;2.90;1.70;;;22.60;99.90;;;;;;5015442;28;20876;-71
2023/09/20 09:39:16;;;;;;;3.23;2.10;;;22.60;99.90;;;;;;5015498;28;20442;-71
2023/09/20 09:41:43;;;;;;;2.07;1.87;;;22.80;99.90;;;;;;5015313;28;20198;-70
2023/09/20 09:44:08;;;;;;;1.93;1.50;;;22.70;99.90;;;;;;5015251;28;20411;-71
2023/09/20 09:46:35;;;;;;;3.00;2.00;;;22.80;99.90;;;;;;5014921;28;20450;-70
2023/09/20 09:49:02;;;;;;;2.57;1.83;;;23.00;99.80;;;;;;5015143;28;20164;-70
2023/09/20 09:51:32;;;;;;;2.67;2.13;;;23.10;99.90;;;;;;5014817;28;20508;-70
2023/09/20 09:54:00;;;;;;;2.90;2.07;;;23.10;99.50;;;;;;5015082;28;20917;-70
2023/09/20 09:56:27;;;;;;;2.80;1.93;;;23.00;99.40;;;;;;5014908;28;20441;-71
2023/09/20 09:58:52;;;;;;;3.00;2.30;;;22.90;99.90;;;;;;5014761;28;20458;-70
2023/09/20 10:01:21;;;;;;;2.90;1.70;;;23.00;99.00;;;;;;5012116;28;20435;-70
2023/09/20 10:03:50;;;;;;;3.07;2.10;;;22.90;98.40;;;;;;5015490;28;20643;-69
2023/09/20 10:06:28;;;;;;;3.53;1.83;;;23.00;99.60;;;;;;5014990;28;20395;-70
2023/09/20 10:08:54;;;;;;;3.67;1.80;;;23.10;98.60;;;;;;5015387;28;20384;-70
2023/09/20 10:11:25;;;;;;;2.40;1.90;;;23.20;98.80;;;;;;5015430;28;20505;-71
2023/09/20 10:13:52;;;;;;;2.77;1.77;;;23.20;98.60;;;;;;5015597;28;20506;-70
2023/09/20 10:16:18;;;;;;;3.20;1.93;;;23.40;98.90;;;;;;5015618;28;20823;-70
2023/09/20 10:18:53;;;;;;;2.73;1.97;;;23.60;97.80;;;;;;5014838;28;20446;-70
2023/09/20 10:21:24;;;;;;;3.23;2.10;;;23.80;96.60;;;;;;5014623;28;20430;-70
2023/09/20 10:24:04;;;;;;;3.10;1.87;;;23.90;96.80;;;;;;5014529;28;20438;-71
2023/09/20 10:26:39;;;;;;;2.37;2.00;;;24.00;96.30;;;;;;5014450;28;20802;-70
2023/09/20 10:29:26;;;;;;;2.43;2.03;;;24.10;95.90;;;;;;5014461;28;20765;-71
2023/09/20 10:32:06;;;;;;;3.67;2.60;;;24.20;95.70;;;;;;5014380;28;20572;-71
2023/09/20 10:34:38;;;;;;;2.60;1.80;;;24.30;95.30;;;;;;5014392;28;20387;-70
2023/09/20 10:37:11;;;;;;;2.97;2.00;;;24.10;94.60;;;;;;5013917;28;20949;-70
2023/09/20 10:39:39;;;;;;;4.10;2.50;;;24.50;94.30;;;;;;5014110;28;20441;-71
2023/09/20 10:42:12;;;;;;;5.77;2.07;;;25.80;92.90;;;;;;5013752;28;20512;-70
2023/09/20 10:44:41;;;;;;;2.03;1.83;;;27.40;90.20;;;;;;5014227;28;20403;-70
2023/09/20 10:47:12;;;;;;;2.83;1.90;;;28.50;84.40;;;;;;5031829;23;21012;-71
2023/09/20 10:49:59;;;;;;;2.73;2.30;;;29.00;81.60;;;;;;4996147;28;20376;-70
2023/09/20 10:52:33;;;;;;;2.60;2.10;;;29.20;76.90;;;;;;5000954;28;20400;-71
2023/09/20 10:55:22;;;;;;;2.93;2.33;;;28.90;77.50;;;;;;4997219;28;20391;-70
2023/09/20 10:57:50;;;;;;;3.33;2.40;;;28.50;75.50;;;;;;4996253;28;20993;-70
2023/09/20 11:00:30;;;;;;;3.10;1.90;;;28.10;73.70;;;;;;4998312;28;20392;-70
2023/09/20 11:02:56;;;;;;;2.73;2.37;;;28.30;76.80;;;;;;4979522;28;20502;-71
2023/09/20 11:05:29;;;;;;;2.50;2.30;;;29.00;74.50;;;;;;4995865;28;20454;-71
2023/09/20 11:07:55;;;;;;;2.77;2.43;;;30.20;67.10;;;;;;4996925;28;20420;-71
2023/09/20 11:10:22;;;;;;;2.93;2.63;;;32.30;61.10;;;;;;4998031;28;20838;-70
2023/09/20 11:12:50;;;;;;;3.23;2.37;;;31.90;59.20;;;;;;4999135;28;20483;-71
2023/09/20 11:15:16;;;;;;;2.73;1.90;;;32.10;58.80;;;;;;5012135;28;20435;-71
2023/09/20 11:17:42;;;;;;;2.20;2.00;;;32.20;57.60;;;;;;4995151;28;20435;-70
2023/09/20 11:20:10;;;;;;;3.33;2.10;;;31.90;57.70;;;;;;4996225;28;20169;-70
2023/09/20 11:22:37;;;;;;;3.00;2.27;;;32.10;58.80;;;;;;4994775;28;20448;-71
2023/09/20 11:25:04;;;;;;;2.40;2.17;;;33.30;55.70;;;;;;4996462;28;20400;-71
2023/09/20 11:27:34;;;;;;;4.70;2.37;;;34.10;55.20;;;;;;5016067;28;20419;-70
2023/09/20 11:30:04;;;;;;;2.50;2.23;;;34.50;52.60;;;;;;5018977;28;20380;-71
2023/09/20 11:32:30;;;;;;;2.40;2.03;;;34.10;54.30;;;;;;5034614;28;20407;-70
2023/09/20 11:34:55;;;;;;;2.20;2.00;;;34.50;52.50;;;;;;5034750;28;20438;-70
2023/09/20 11:37:22;;;;;;;2.57;1.87;;;33.90;53.40;;;;;;5015969;28;20303;-69
2023/09/20 11:39:49;;;;;;;2.90;2.23;;;34.50;52.80;;;;;;5016052;28;20180;-70
2023/09/20 11:42:34;;;;;;;1.40;1.30;;;34.40;52.60;;;;;;5013974;28;20454;-70
2023/09/20 11:45:08;;;;;;;2.60;2.30;;;34.50;53.30;;;;;;5014530;28;20384;-71
2023/09/20 11:47:37;;;;;;;3.17;1.80;;;34.60;54.50;;;;;;5033365;28;20522;-71
2023/09/20 11:50:04;;;;;;;2.43;1.87;;;34.50;53.60;;;;;;5030174;28;20779;-70
2023/09/20 11:52:30;;;;;;;3.30;1.73;;;34.40;53.80;;;;;;5032322;28;20458;-70
2023/09/20 11:54:58;;;;;;;1.90;1.50;;;35.10;51.60;;;;;;5034937;28;20391;-71
2023/09/20 11:57:25;;;;;;;1.90;1.60;;;34.90;51.80;;;;;;4983697;28;20216;-71
2023/09/20 11:59:53;;;;;;;2.10;1.50;;;34.50;52.60;;;;;;4975539;28;20428;-72
2023/09/20 12:02:19;;;;;;;2.43;1.23;;;35.90;50.10;;;;;;4974974;28;20809;-70
2023/09/20 12:04:45;;;;;;;2.03;1.13;;;35.20;51.80;;;;;;4976083;28;20409;-70
2023/09/20 12:07:11;;;;;;;1.87;1.40;;;36.50;49.70;;;;;;5010622;28;20219;-71
2023/09/20 12:09:37;;;;;;;2.03;1.27;;;36.50;48.10;;;;;;5013702;28;20160;-72
2023/09/20 12:12:05;;;;;;;1.43;1.20;;;36.30;49.40;;;;;;5013671;28;20601;-72
2023/09/20 12:14:33;;;;;;;1.57;1.23;;;36.90;48.70;;;;;;5012660;28;20499;-72
2023/09/20 12:16:59;;;;;;;1.70;1.40;;;37.70;47.80;;;;;;5013253;28;20964;-71
2023/09/20 12:19:25;;;;;;;1.93;1.43;;;37.60;46.50;;;;;;5014120;28;20453;-71
2023/09/20 12:21:50;;;;;;;1.13;1.00;;;35.70;49.10;;;;;;5013795;28;20250;-70
2023/09/20 12:24:16;;;;;;;1.80;0.93;;;35.80;48.60;;;;;;5015933;28;20160;-72
2023/09/20 12:26:42;;;;;;;1.57;1.40;;;36.70;48.00;;;;;;5003724;28;20223;-72
2023/09/20 12:29:07;;;;;;;1.33;1.20;;;38.00;46.10;;;;;;4998287;28;20165;-70
2023/09/20 12:31:33;;;;;;;1.70;1.30;;;38.00;45.70;;;;;;4998191;28;20543;-70
2023/09/20 12:34:00;;;;;;;1.80;1.40;;;38.70;45.90;;;;;;4997714;28;20176;-70
2023/09/20 12:36:28;;;;;;;1.83;1.53;;;38.30;45.60;;;;;;5009503;28;20221;-70
2023/09/20 12:38:53;;;;;;;2.10;1.83;;;38.00;45.50;;;;;;5017112;28;20403;-70
2023/09/20 12:41:20;;;;;;;1.40;1.00;;;37.70;46.50;;;;;;5016857;28;20449;-69
2023/09/20 12:43:46;;;;;;;2.90;1.20;;;37.70;44.10;;;;;;5016970;28;20198;-70
2023/09/20 12:46:12;;;;;;;4.40;1.67;;;37.20;45.40;;;;;;5012487;28;20493;-70
2023/09/20 12:48:38;;;;;;;1.50;1.20;;;37.60;45.40;;;;;;5016874;28;20208;-70
2023/09/20 12:51:07;;;;;;;1.70;1.40;;;38.40;44.30;;;;;;5016850;28;20164;-69
2023/09/20 12:53:33;;;;;;;5.03;1.50;;;38.10;43.50;;;;;;5017088;28;20266;-70
2023/09/20 12:56:00;;;;;;;2.37;1.20;;;38.40;42.90;;;;;;5009386;28;20542;-70
2023/09/20 12:58:26;;;;;;;1.63;1.23;;;38.60;42.00;;;;;;4997303;28;20450;-70
2023/09/20 13:00:51;;;;;;;2.00;1.00;;;38.40;42.30;;;;;;4997042;28;20926;-70
2023/09/20 13:03:17;;;;;;;1.73;0.90;;;38.50;42.30;;;;;;4999457;28;20863;-70
2023/09/20 13:05:44;;;;;;;1.20;1.10;;;38.10;42.60;;;;;;5001508;28;20172;-70
2023/09/20 13:08:16;;;;;;;1.63;1.20;;;37.60;43.10;;;;;;5016432;28;20180;-70
2023/09/20 13:10:43;;;;;;;2.47;1.30;;;37.40;43.60;;;;;;5016542;28;20380;-70
2023/09/20 13:13:10;;;;;;;1.70;1.17;;;36.90;43.90;;;;;;5016648;28;20403;-70
2023/09/20 13:15:41;;;;;;;2.27;1.20;;;36.50;45.30;;;;;;5012629;28;20396;-70
2023/09/20 13:18:10;;;;;;;2.13;1.00;;;37.80;43.10;;;;;;4997077;28;20424;-70
2023/09/20 13:20:37;;;;;;;1.10;0.93;;;36.90;42.80;;;;;;4996722;28;20494;-70
2023/09/20 13:23:05;;;;;;;1.00;0.77;;;37.90;41.70;;;;;;4996883;28;20459;-70
2023/09/20 13:25:32;;;;;;;2.83;1.30;;;37.00;41.90;;;;;;4999826;28;20833;-70
2023/09/20 13:27:58;;;;;;;1.80;1.10;;;36.60;41.60;;;;;;5016123;28;20431;-71
2023/09/20 13:30:26;;;;;;;1.87;1.40;;;36.60;42.20;;;;;;5016241;28;20410;-71
2023/09/20 13:32:53;;;;;;;1.93;1.27;;;37.10;43.20;;;;;;5016639;28;20551;-71
2023/09/20 13:35:18;;;;;;;1.30;1.20;;;37.70;41.30;;;;;;5014759;28;20411;-70